Time;durP1;ratioP1;P1;durP2;ratioP2;P2;SDS_P1;SDS_P2;PMS_P1;PMS_P2;Temp;Humidity;BMP_temperature;BMP_pressure;BME280_temperature;BME280_humidity;BME280_pressure;Samples;Min_cycle;Max_cycle;Signal;HPM_P1;HPM_P2
2022/07/22 00:01:25;;;;;;;5.47;3.08;;;;;;;;;;5059842;28;20840;-63
2022/07/22 00:03:51;;;;;;;5.18;3.15;;;;;;;;;;5058036;28;20057;-68
2022/07/22 00:06:17;;;;;;;6.10;2.95;;;;;;;;;;5058855;28;20135;-62
2022/07/22 00:08:43;;;;;;;3.75;2.72;;;;;;;;;;5059133;28;20040;-69
2022/07/22 00:11:08;;;;;;;5.47;3.38;;;;;;;;;;5061541;28;20036;-64
2022/07/22 00:13:34;;;;;;;3.95;3.10;;;;;;;;;;5057394;28;20042;-69
2022/07/22 00:16:00;;;;;;;6.13;3.15;;;;;;;;;;5058497;28;20051;-64
2022/07/22 00:18:26;;;;;;;6.13;2.83;;;;;;;;;;5057432;28;20475;-69
2022/07/22 00:20:52;;;;;;;4.85;2.92;;;;;;;;;;5059396;28;20088;-62
2022/07/22 00:23:18;;;;;;;7.35;3.15;;;;;;;;;;5055778;28;20455;-61
2022/07/22 00:25:43;;;;;;;5.70;3.70;;;;;;;;;;5040095;28;20153;-64
2022/07/22 00:28:10;;;;;;;9.75;3.88;;;;;;;;;;5061344;28;20044;-65
2022/07/22 00:30:35;;;;;;;6.80;3.80;;;;;;;;;;5056538;28;20040;-66
2022/07/22 00:33:02;;;;;;;6.75;3.70;;;;;;;;;;5060500;28;20048;-68
2022/07/22 00:35:28;;;;;;;5.93;3.65;;;;;;;;;;5059088;28;20060;-61
2022/07/22 00:37:54;;;;;;;8.00;4.10;;;;;;;;;;5058651;28;20056;-61
2022/07/22 00:40:19;;;;;;;7.90;4.30;;;;;;;;;;5057620;28;20052;-63
2022/07/22 00:42:45;;;;;;;6.53;3.63;;;;;;;;;;5060095;28;20167;-62
2022/07/22 00:45:11;;;;;;;7.50;4.38;;;;;;;;;;5058472;28;20048;-68
2022/07/22 00:47:38;;;;;;;6.57;4.07;;;;;;;;;;5060551;28;20055;-73
2022/07/22 00:50:05;;;;;;;10.80;4.20;;;;;;;;;;5061533;28;20086;-66
2022/07/22 00:52:32;;;;;;;6.32;4.18;;;;;;;;;;5060993;28;20140;-67
2022/07/22 00:54:59;;;;;;;7.80;4.18;;;;;;;;;;5060350;28;20064;-64
2022/07/22 00:57:25;;;;;;;10.35;4.22;;;;;;;;;;5057733;28;20063;-61
2022/07/22 00:59:51;;;;;;;10.15;4.45;;;;;;;;;;5055979;28;20049;-70
2022/07/22 01:02:17;;;;;;;9.23;4.03;;;;;;;;;;5057990;28;20044;-62
2022/07/22 01:04:43;;;;;;;15.38;3.78;;;;;;;;;;5056530;28;20491;-69
2022/07/22 01:07:09;;;;;;;6.53;4.05;;;;;;;;;;5061446;28;20567;-66
2022/07/22 01:09:35;;;;;;;7.03;3.67;;;;;;;;;;5060786;28;20036;-73
2022/07/22 01:12:03;;;;;;;6.50;3.83;;;;;;;;;;5061090;28;20143;-67
2022/07/22 01:14:28;;;;;;;6.78;3.85;;;;;;;;;;5056830;28;20905;-65
2022/07/22 01:16:54;;;;;;;6.95;3.88;;;;;;;;;;5061105;28;20045;-64
2022/07/22 01:19:21;;;;;;;9.40;3.90;;;;;;;;;;5060419;28;20056;-63
2022/07/22 01:21:47;;;;;;;13.70;4.00;;;;;;;;;;5060808;28;20106;-69
2022/07/22 01:24:13;;;;;;;8.60;3.78;;;;;;;;;;5052646;28;20215;-68
2022/07/22 01:26:38;;;;;;;9.75;4.03;;;;;;;;;;5059717;28;20048;-64
2022/07/22 01:29:04;;;;;;;7.25;3.92;;;;;;;;;;5059357;28;20411;-64
2022/07/22 01:31:30;;;;;;;7.93;4.00;;;;;;;;;;5059433;28;20590;-71
2022/07/22 01:33:56;;;;;;;6.78;3.65;;;;;;;;;;5057656;28;20053;-63
2022/07/22 01:36:22;;;;;;;7.25;3.83;;;;;;;;;;5059738;28;20181;-69
2022/07/22 01:38:48;;;;;;;5.75;3.42;;;;;;;;;;5060873;28;20052;-61
2022/07/22 01:41:14;;;;;;;10.30;3.75;;;;;;;;;;5060326;28;20109;-63
2022/07/22 01:43:40;;;;;;;6.53;3.80;;;;;;;;;;5060264;28;20041;-67
2022/07/22 01:46:06;;;;;;;7.55;3.80;;;;;;;;;;5061098;28;20078;-68
2022/07/22 01:48:32;;;;;;;5.55;3.40;;;;;;;;;;5059346;28;20113;-63
2022/07/22 01:50:59;;;;;;;9.35;3.90;;;;;;;;;;5060497;28;20045;-61
2022/07/22 01:53:25;;;;;;;9.05;3.90;;;;;;;;;;5060684;28;20091;-69
2022/07/22 01:55:51;;;;;;;4.45;3.80;;;;;;;;;;5061924;28;20052;-61
2022/07/22 01:58:17;;;;;;;9.23;3.60;;;;;;;;;;5066020;28;20082;-63
2022/07/22 02:00:44;;;;;;;9.00;3.80;;;;;;;;;;5063886;28;20135;-67
2022/07/22 02:03:10;;;;;;;9.75;4.00;;;;;;;;;;5061532;28;20056;-63
2022/07/22 02:05:37;;;;;;;6.38;3.72;;;;;;;;;;5062800;28;20044;-70
2022/07/22 02:08:04;;;;;;;7.97;3.92;;;;;;;;;;5066109;28;20828;-64
2022/07/22 02:10:30;;;;;;;7.00;3.97;;;;;;;;;;5063536;28;21349;-68
2022/07/22 02:12:57;;;;;;;6.85;3.80;;;;;;;;;;5064977;28;20059;-64
2022/07/22 02:15:23;;;;;;;8.35;3.92;;;;;;;;;;5062842;28;20619;-68
2022/07/22 02:17:49;;;;;;;8.15;3.88;;;;;;;;;;5061893;28;20394;-63
2022/07/22 02:20:15;;;;;;;6.35;3.50;;;;;;;;;;5063230;28;21171;-67
2022/07/22 02:22:41;;;;;;;5.97;3.42;;;;;;;;;;5064644;28;20050;-68
2022/07/22 02:25:07;;;;;;;5.95;3.55;;;;;;;;;;5062071;28;20043;-73
2022/07/22 02:27:33;;;;;;;4.72;3.05;;;;;;;;;;5066187;28;20060;-70
2022/07/22 02:29:59;;;;;;;10.00;3.30;;;;;;;;;;5064185;28;20526;-67
2022/07/22 02:32:25;;;;;;;6.18;3.20;;;;;;;;;;5064145;28;20083;-62
2022/07/22 02:34:51;;;;;;;5.88;3.60;;;;;;;;;;5063207;28;20495;-68
2022/07/22 02:37:16;;;;;;;6.97;3.55;;;;;;;;;;5062746;28;20122;-64
2022/07/22 02:39:42;;;;;;;6.90;3.55;;;;;;;;;;5062703;28;20055;-62
2022/07/22 02:42:08;;;;;;;6.28;3.50;;;;;;;;;;5063856;28;20075;-67
2022/07/22 02:44:34;;;;;;;5.45;3.90;;;;;;;;;;5063198;28;20141;-66
2022/07/22 02:47:00;;;;;;;8.00;3.90;;;;;;;;;;5064269;28;20053;-62
2022/07/22 02:49:26;;;;;;;4.82;3.55;;;;;;;;;;5064116;28;20060;-63
2022/07/22 02:51:52;;;;;;;8.68;4.00;;;;;;;;;;5061847;28;20049;-66
2022/07/22 02:54:18;;;;;;;7.07;4.10;;;;;;;;;;5063002;28;20071;-62
2022/07/22 02:56:43;;;;;;;8.98;4.10;;;;;;;;;;5063192;28;20098;-72
2022/07/22 02:59:09;;;;;;;7.95;4.80;;;;;;;;;;5062718;28;20102;-64
2022/07/22 03:01:35;;;;;;;10.23;4.43;;;;;;;;;;5064053;28;20454;-67
2022/07/22 03:04:01;;;;;;;8.30;4.80;;;;;;;;;;5062477;28;20060;-71
2022/07/22 03:06:27;;;;;;;8.05;4.93;;;;;;;;;;5061268;28;20102;-63
2022/07/22 03:08:53;;;;;;;11.27;4.93;;;;;;;;;;5061310;28;20060;-61
2022/07/22 03:11:18;;;;;;;10.85;5.35;;;;;;;;;;5043680;28;20045;-62
2022/07/22 03:13:44;;;;;;;12.48;5.75;;;;;;;;;;5061012;28;20156;-64
2022/07/22 03:16:10;;;;;;;12.43;5.78;;;;;;;;;;5063062;28;20418;-64
2022/07/22 03:18:36;;;;;;;11.60;5.43;;;;;;;;;;5060425;28;20036;-71
2022/07/22 03:21:01;;;;;;;11.02;6.13;;;;;;;;;;5061469;28;20258;-67
2022/07/22 03:23:27;;;;;;;10.82;5.40;;;;;;;;;;5061128;28;20135;-68
2022/07/22 03:25:55;;;;;;;15.73;5.72;;;;;;;;;;5061489;28;20125;-65
2022/07/22 03:28:21;;;;;;;9.43;5.55;;;;;;;;;;5062925;28;20044;-69
2022/07/22 03:30:47;;;;;;;13.60;6.75;;;;;;;;;;5059913;28;20059;-65
2022/07/22 03:33:12;;;;;;;12.63;6.78;;;;;;;;;;5061186;28;20044;-65
2022/07/22 03:35:38;;;;;;;13.15;6.28;;;;;;;;;;5044502;28;20059;-63
2022/07/22 03:38:04;;;;;;;18.75;6.75;;;;;;;;;;5062597;28;20177;-70
2022/07/22 03:40:30;;;;;;;11.40;6.60;;;;;;;;;;5061063;28;20056;-62
2022/07/22 03:42:56;;;;;;;13.02;6.70;;;;;;;;;;5060836;28;20059;-62
2022/07/22 03:45:22;;;;;;;10.45;6.50;;;;;;;;;;5059885;28;20078;-60
2022/07/22 03:47:47;;;;;;;16.80;6.00;;;;;;;;;;5061455;28;20078;-63
2022/07/22 03:50:13;;;;;;;9.32;6.30;;;;;;;;;;5060894;28;20044;-63
2022/07/22 03:52:39;;;;;;;10.23;5.88;;;;;;;;;;5062009;28;20710;-70
2022/07/22 03:55:06;;;;;;;10.82;5.60;;;;;;;;;;5060567;28;20129;-65
2022/07/22 03:57:31;;;;;;;9.07;5.50;;;;;;;;;;5062542;28;20060;-69
2022/07/22 03:59:57;;;;;;;8.27;5.22;;;;;;;;;;5060231;28;20056;-64
2022/07/22 04:05:46;;;;;;;8.82;5.90;;;;;;;;;;5059176;28;20063;-60
2022/07/22 04:08:12;;;;;;;7.97;5.00;;;;;;;;;;5063008;28;20048;-71
2022/07/22 04:10:38;;;;;;;7.18;5.15;;;;;;;;;;5057703;28;20045;-68
2022/07/22 04:13:04;;;;;;;11.48;5.65;;;;;;;;;;5059809;28;20052;-74
2022/07/22 04:15:30;;;;;;;9.48;5.18;;;;;;;;;;5062238;28;20693;-71
2022/07/22 04:17:56;;;;;;;8.10;5.13;;;;;;;;;;5061136;28;20123;-67
2022/07/22 04:20:22;;;;;;;11.25;5.05;;;;;;;;;;5061072;28;20056;-65
2022/07/22 04:22:48;;;;;;;12.50;5.38;;;;;;;;;;5045316;28;20071;-65
2022/07/22 04:25:14;;;;;;;10.20;5.20;;;;;;;;;;5059129;28;20052;-72
2022/07/22 04:27:40;;;;;;;10.35;5.20;;;;;;;;;;5057758;28;20505;-67
2022/07/22 04:30:07;;;;;;;10.98;4.55;;;;;;;;;;5059853;28;20127;-64
2022/07/22 04:32:33;;;;;;;8.25;5.15;;;;;;;;;;5059496;28;20110;-70
2022/07/22 04:34:59;;;;;;;11.82;5.40;;;;;;;;;;5060874;28;20053;-66
2022/07/22 04:37:25;;;;;;;10.13;5.10;;;;;;;;;;5061965;28;20059;-67
2022/07/22 04:39:51;;;;;;;9.77;4.90;;;;;;;;;;5061324;28;20071;-66
2022/07/22 04:42:17;;;;;;;12.32;5.45;;;;;;;;;;5059185;28;20053;-66
2022/07/22 04:44:44;;;;;;;8.88;5.35;;;;;;;;;;5060902;28;20051;-76
2022/07/22 04:47:11;;;;;;;12.20;4.85;;;;;;;;;;5062304;28;20063;-68
2022/07/22 04:49:37;;;;;;;9.25;4.95;;;;;;;;;;5061557;28;20056;-69
2022/07/22 04:52:03;;;;;;;18.33;5.95;;;;;;;;;;5061313;28;20052;-70
2022/07/22 04:54:29;;;;;;;11.98;5.32;;;;;;;;;;5059647;28;20491;-68
2022/07/22 04:56:55;;;;;;;13.40;5.15;;;;;;;;;;5062139;28;20068;-66
2022/07/22 04:59:21;;;;;;;11.82;5.63;;;;;;;;;;5058186;28;20131;-67
2022/07/22 05:01:46;;;;;;;10.00;5.20;;;;;;;;;;5057035;28;20094;-74
2022/07/22 05:04:13;;;;;;;18.08;6.20;;;;;;;;;;5060277;28;20415;-69
2022/07/22 05:06:38;;;;;;;8.95;4.75;;;;;;;;;;5044432;28;20047;-69
2022/07/22 05:09:04;;;;;;;12.98;4.93;;;;;;;;;;5060354;28;20419;-64
2022/07/22 05:11:30;;;;;;;8.95;4.95;;;;;;;;;;5061047;28;20052;-66
2022/07/22 05:13:56;;;;;;;13.48;4.88;;;;;;;;;;5058567;28;20060;-67
2022/07/22 05:16:22;;;;;;;9.10;4.70;;;;;;;;;;5059117;28;20431;-70
2022/07/22 05:18:48;;;;;;;9.02;4.78;;;;;;;;;;5061388;28;20049;-66
2022/07/22 05:21:14;;;;;;;12.10;4.90;;;;;;;;;;5061195;28;20048;-68
2022/07/22 05:23:39;;;;;;;13.02;5.00;;;;;;;;;;5059131;28;20559;-72
2022/07/22 05:26:06;;;;;;;14.00;4.57;;;;;;;;;;5060901;28;20049;-69
2022/07/22 05:28:31;;;;;;;11.82;5.18;;;;;;;;;;5061089;28;20213;-68
2022/07/22 05:30:57;;;;;;;7.95;5.20;;;;;;;;;;5057491;28;20502;-66
2022/07/22 05:33:23;;;;;;;13.32;5.47;;;;;;;;;;5058452;28;20052;-70
2022/07/22 05:35:49;;;;;;;13.00;5.28;;;;;;;;;;5056924;28;20551;-64
2022/07/22 05:38:14;;;;;;;12.15;5.38;;;;;;;;;;5059617;28;20055;-70
2022/07/22 05:40:41;;;;;;;10.40;5.22;;;;;;;;;;5038645;28;20095;-68
2022/07/22 05:43:06;;;;;;;7.82;4.72;;;;;;;;;;5060984;28;20048;-72
2022/07/22 05:45:32;;;;;;;5.88;4.80;;;;;;;;;;5059976;28;20135;-75
2022/07/22 05:47:59;;;;;;;16.45;5.90;;;;;;;;;;5061325;28;20869;-63
2022/07/22 05:50:25;;;;;;;11.60;5.25;;;;;;;;;;5057657;28;20189;-67
2022/07/22 05:52:52;;;;;;;10.07;4.72;;;;;;;;;;5060719;28;20171;-64
2022/07/22 05:55:18;;;;;;;9.75;5.03;;;;;;;;;;5057959;28;20549;-71
2022/07/22 05:57:44;;;;;;;11.52;4.72;;;;;;;;;;5057252;28;20067;-67
2022/07/22 06:00:10;;;;;;;10.68;5.68;;;;;;;;;;5038239;28;20127;-71
2022/07/22 06:02:36;;;;;;;15.90;5.13;;;;;;;;;;5059119;28;20052;-69
2022/07/22 06:05:02;;;;;;;11.65;4.60;;;;;;;;;;5036371;28;20090;-67
2022/07/22 06:07:28;;;;;;;18.58;8.00;;;;;;;;;;5046392;28;20059;-70
2022/07/22 06:09:54;;;;;;;12.48;6.63;;;;;;;;;;5061182;28;20048;-67
2022/07/22 06:12:20;;;;;;;13.63;5.55;;;;;;;;;;5064986;28;20045;-68
2022/07/22 06:14:46;;;;;;;10.30;4.80;;;;;;;;;;5066801;28;20118;-65
2022/07/22 06:17:12;;;;;;;13.98;4.80;;;;;;;;;;5066056;28;20491;-65
2022/07/22 06:19:39;;;;;;;13.75;4.78;;;;;;;;;;5058738;28;20088;-75
2022/07/22 06:22:04;;;;;;;10.85;5.05;;;;;;;;;;5066609;28;20112;-66
2022/07/22 06:24:30;;;;;;;14.20;4.90;;;;;;;;;;5062629;28;20171;-69
2022/07/22 06:26:56;;;;;;;9.50;4.50;;;;;;;;;;5066329;28;20095;-65
2022/07/22 06:29:22;;;;;;;16.83;5.07;;;;;;;;;;5066247;28;20048;-69
2022/07/22 06:31:48;;;;;;;10.45;4.65;;;;;;;;;;5048053;28;20462;-67
2022/07/22 06:34:14;;;;;;;12.55;4.72;;;;;;;;;;5066773;28;20055;-64
2022/07/22 06:36:40;;;;;;;8.93;4.68;;;;;;;;;;5067018;28;20044;-68
2022/07/22 06:39:06;;;;;;;12.88;4.40;;;;;;;;;;5066153;28;20127;-69
2022/07/22 06:41:32;;;;;;;10.30;4.47;;;;;;;;;;5066375;28;20136;-67
2022/07/22 06:43:58;;;;;;;7.85;4.40;;;;;;;;;;5068055;28;20052;-66
2022/07/22 06:46:23;;;;;;;10.90;4.82;;;;;;;;;;5069982;28;20040;-67
2022/07/22 06:48:50;;;;;;;10.20;4.80;;;;;;;;;;5065866;28;20106;-66
2022/07/22 06:51:15;;;;;;;11.13;4.60;;;;;;;;;;5070055;28;20132;-66
2022/07/22 06:53:42;;;;;;;10.10;4.75;;;;;;;;;;5068743;28;20458;-68
2022/07/22 06:56:08;;;;;;;15.88;5.60;;;;;;;;;;5070964;28;20059;-68
2022/07/22 06:58:34;;;;;;;14.05;5.10;;;;;;;;;;5070488;28;20040;-66
2022/07/22 07:01:00;;;;;;;12.00;4.95;;;;;;;;;;5070110;28;20053;-67
2022/07/22 07:03:25;;;;;;;9.27;4.65;;;;;;;;;;5070847;28;20044;-69
2022/07/22 07:05:52;;;;;;;10.30;4.38;;;;;;;;;;5068658;28;20207;-66
2022/07/22 07:08:18;;;;;;;13.45;4.60;;;;;;;;;;5070439;28;20059;-67
2022/07/22 07:10:44;;;;;;;12.18;4.70;;;;;;;;;;5069205;28;20068;-67
2022/07/22 07:13:10;;;;;;;10.40;4.65;;;;;;;;;;5045202;28;20135;-66
2022/07/22 07:15:36;;;;;;;7.60;4.13;;;;;;;;;;5070908;28;20072;-66
2022/07/22 07:18:02;;;;;;;16.60;4.35;;;;;;;;;;5070700;28;20075;-69
2022/07/22 07:20:28;;;;;;;9.93;4.55;;;;;;;;;;5068659;28;20056;-65
2022/07/22 07:22:54;;;;;;;10.95;4.50;;;;;;;;;;5069577;28;20136;-70
2022/07/22 07:25:21;;;;;;;13.02;4.50;;;;;;;;;;5068083;28;20446;-71
2022/07/22 07:27:47;;;;;;;12.38;4.65;;;;;;;;;;5069826;28;20068;-65
2022/07/22 07:30:13;;;;;;;7.93;4.10;;;;;;;;;;5069102;28;20078;-67
2022/07/22 07:32:39;;;;;;;11.18;4.82;;;;;;;;;;5067774;28;20072;-68
2022/07/22 07:35:06;;;;;;;11.55;4.55;;;;;;;;;;5068866;28;20564;-68
2022/07/22 07:37:32;;;;;;;8.88;4.03;;;;;;;;;;5069116;28;20044;-66
2022/07/22 07:39:58;;;;;;;9.55;4.30;;;;;;;;;;5063615;28;20055;-68
2022/07/22 07:42:25;;;;;;;11.07;4.70;;;;;;;;;;5067063;28;20044;-67
2022/07/22 07:44:51;;;;;;;9.50;4.30;;;;;;;;;;5067233;28;20055;-67
2022/07/22 07:47:18;;;;;;;8.93;4.18;;;;;;;;;;5067903;28;20040;-67
2022/07/22 07:49:45;;;;;;;9.02;4.28;;;;;;;;;;5066291;28;20052;-73
2022/07/22 07:52:12;;;;;;;8.00;4.40;;;;;;;;;;5067264;28;20086;-69
2022/07/22 07:54:39;;;;;;;10.13;4.55;;;;;;;;;;5066461;28;20044;-66
2022/07/22 07:57:06;;;;;;;11.73;4.05;;;;;;;;;;5068297;28;20445;-66
2022/07/22 07:59:32;;;;;;;8.45;4.07;;;;;;;;;;5067873;28;20418;-66
2022/07/22 08:01:58;;;;;;;7.10;3.75;;;;;;;;;;5069013;28;20044;-65
2022/07/22 08:04:24;;;;;;;7.63;4.10;;;;;;;;;;5068680;28;20049;-71
2022/07/22 08:06:50;;;;;;;9.23;4.30;;;;;;;;;;5068571;28;20548;-70
2022/07/22 08:09:16;;;;;;;8.07;4.32;;;;;;;;;;5067668;28;20048;-65
2022/07/22 08:11:41;;;;;;;9.02;4.15;;;;;;;;;;5068331;28;20475;-67
2022/07/22 08:14:07;;;;;;;9.73;4.85;;;;;;;;;;5067645;28;20209;-69
2022/07/22 08:16:33;;;;;;;15.75;4.88;;;;;;;;;;5068288;28;20041;-66
2022/07/22 08:18:59;;;;;;;10.38;4.40;;;;;;;;;;5067377;28;20047;-69
2022/07/22 08:21:25;;;;;;;7.35;4.10;;;;;;;;;;5068731;28;20051;-67
2022/07/22 08:23:52;;;;;;;7.22;3.88;;;;;;;;;;5065466;28;20048;-70
2022/07/22 08:26:18;;;;;;;7.68;3.55;;;;;;;;;;5068649;28;20052;-65
2022/07/22 08:28:44;;;;;;;9.18;4.18;;;;;;;;;;5067213;28;20394;-65
2022/07/22 08:31:10;;;;;;;11.23;4.25;;;;;;;;;;5068616;28;20110;-65
2022/07/22 08:33:36;;;;;;;12.25;4.18;;;;;;;;;;5068158;28;20132;-65
2022/07/22 08:36:02;;;;;;;8.90;3.88;;;;;;;;;;5031944;28;20123;-67
2022/07/22 08:38:28;;;;;;;6.50;3.88;;;;;;;;;;5041049;28;20067;-71
2022/07/22 08:40:55;;;;;;;7.03;4.22;;;;;;;;;;5065502;28;20154;-64
2022/07/22 08:43:22;;;;;;;6.75;3.67;;;;;;;;;;5041005;28;20057;-72
2022/07/22 08:45:49;;;;;;;8.98;3.83;;;;;;;;;;5066969;28;20047;-68
2022/07/22 08:48:15;;;;;;;10.07;4.13;;;;;;;;;;5067667;28;20052;-67
2022/07/22 08:50:42;;;;;;;11.20;4.00;;;;;;;;;;5068150;28;20120;-71
2022/07/22 08:53:12;;;;;;;8.90;3.95;;;;;;;;;;5068065;28;20109;-66
2022/07/22 08:55:56;;;;;;;8.32;3.67;;;;;;;;;;5066921;28;20102;-67
2022/07/22 08:58:22;;;;;;;10.07;4.20;;;;;;;;;;5068885;28;20044;-68
2022/07/22 09:01:23;;;;;;;10.30;4.10;;;;;;;;;;5068900;28;20189;-66
2022/07/22 09:03:52;;;;;;;8.50;3.85;;;;;;;;;;5068574;28;20052;-65
2022/07/22 09:06:20;;;;;;;10.32;4.05;;;;;;;;;;5068296;28;20075;-68
2022/07/22 09:09:06;;;;;;;9.00;3.92;;;;;;;;;;5067044;28;20052;-64
2022/07/22 09:11:32;;;;;;;7.75;3.45;;;;;;;;;;5069034;28;20047;-68
2022/07/22 09:14:00;;;;;;;8.77;3.40;;;;;;;;;;5067620;28;20052;-66
2022/07/22 09:16:47;;;;;;;7.22;3.33;;;;;;;;;;5067323;28;20051;-70
2022/07/22 09:19:14;;;;;;;11.90;3.60;;;;;;;;;;5067303;28;20058;-66
2022/07/22 09:21:43;;;;;;;9.35;3.40;;;;;;;;;;5067916;28;20448;-70
2022/07/22 09:24:29;;;;;;;7.20;3.13;;;;;;;;;;5065703;28;20052;-65
2022/07/22 09:26:55;;;;;;;5.63;2.80;;;;;;;;;;5061507;28;20045;-69
2022/07/22 09:29:22;;;;;;;5.28;2.90;;;;;;;;;;5067154;28;20135;-67
2022/07/22 09:31:52;;;;;;;3.95;2.15;;;;;;;;;;5067753;28;20506;-66
2022/07/22 09:34:30;;;;;;;5.97;2.50;;;;;;;;;;5067011;28;20052;-71
2022/07/22 09:36:58;;;;;;;8.02;3.13;;;;;;;;;;5067816;28;20041;-72
2022/07/22 09:39:30;;;;;;;6.32;3.08;;;;;;;;;;5066676;28;20049;-67
2022/07/22 09:41:58;;;;;;;7.75;3.72;;;;;;;;;;5067741;28;20040;-65
2022/07/22 09:44:24;;;;;;;6.20;3.42;;;;;;;;;;5066338;28;20044;-66
2022/07/22 09:46:50;;;;;;;7.45;3.53;;;;;;;;;;5067652;28;20552;-68
2022/07/22 09:49:33;;;;;;;8.32;2.92;;;;;;;;;;5064708;28;20049;-67
2022/07/22 09:52:01;;;;;;;5.32;2.90;;;;;;;;;;5066864;28;20407;-66
2022/07/22 09:54:29;;;;;;;4.65;3.00;;;;;;;;;;5048169;28;20105;-66
2022/07/22 09:56:55;;;;;;;4.85;3.78;;;;;;;;;;5066260;28;20047;-73
2022/07/22 09:59:21;;;;;;;9.25;3.10;;;;;;;;;;5066447;28;21683;-70
2022/07/22 10:01:50;;;;;;;12.85;4.20;;;;;;;;;;5067721;28;20041;-68
2022/07/22 10:04:19;;;;;;;6.85;3.65;;;;;;;;;;5066630;28;20624;-69
2022/07/22 10:06:47;;;;;;;10.10;3.85;;;;;;;;;;5067054;28;20045;-68
2022/07/22 10:09:14;;;;;;;8.02;3.67;;;;;;;;;;5065649;28;20056;-68
2022/07/22 10:11:44;;;;;;;8.07;3.55;;;;;;;;;;5066043;28;20611;-69
2022/07/22 10:14:17;;;;;;;6.20;3.63;;;;;;;;;;5065547;28;20502;-69
2022/07/22 10:16:43;;;;;;;9.35;3.70;;;;;;;;;;5069199;28;20131;-68
2022/07/22 10:19:10;;;;;;;8.77;3.80;;;;;;;;;;5070770;28;20115;-65
2022/07/22 10:21:37;;;;;;;7.28;3.97;;;;;;;;;;5069888;28;20037;-66
2022/07/22 10:24:11;;;;;;;8.52;3.45;;;;;;;;;;5069830;28;20056;-70
2022/07/22 10:26:52;;;;;;;6.38;3.50;;;;;;;;;;5071392;28;20120;-66
2022/07/22 10:29:34;;;;;;;7.65;3.60;;;;;;;;;;5059645;28;20037;-73
2022/07/22 10:32:21;;;;;;;7.15;3.47;;;;;;;;;;5066848;28;20427;-71
2022/07/22 10:35:00;;;;;;;3.58;2.80;;;;;;;;;;5070116;28;20483;-65
2022/07/22 10:37:35;;;;;;;4.53;2.63;;;;;;;;;;5072156;28;20465;-68
2022/07/22 10:40:12;;;;;;;9.68;2.60;;;;;;;;;;5069526;28;20056;-68
2022/07/22 10:43:11;;;;;;;6.40;2.50;;;;;;;;;;5070444;28;20052;-68
2022/07/22 10:45:41;;;;;;;6.88;2.78;;;;;;;;;;5025982;28;20041;-68
2022/07/22 10:48:17;;;;;;;5.18;2.97;;;;;;;;;;5067258;28;20404;-70
2022/07/22 10:50:49;;;;;;;4.25;2.60;;;;;;;;;;5066280;28;20556;-66
2022/07/22 10:53:41;;;;;;;8.38;3.10;;;;;;;;;;5069735;28;20044;-74
2022/07/22 10:56:14;;;;;;;6.55;2.85;;;;;;;;;;5061169;28;20098;-68
2022/07/22 10:58:42;;;;;;;8.50;3.38;;;;;;;;;;5069445;28;20098;-67
2022/07/22 11:01:14;;;;;;;6.05;3.22;;;;;;;;;;5070261;28;20044;-67
2022/07/22 11:03:42;;;;;;;6.38;3.03;;;;;;;;;;5069904;28;20067;-67
2022/07/22 11:06:19;;;;;;;7.32;2.78;;;;;;;;;;5069386;28;20053;-65
2022/07/22 11:08:49;;;;;;;7.13;2.92;;;;;;;;;;5067539;28;20041;-67
2022/07/22 11:11:15;;;;;;;3.53;2.83;;;;;;;;;;5069202;28;20056;-66
2022/07/22 11:13:44;;;;;;;5.55;3.40;;;;;;;;;;5068294;28;20109;-67
2022/07/22 11:16:21;;;;;;;7.63;3.10;;;;;;;;;;5069099;28;20048;-65
2022/07/22 11:18:53;;;;;;;6.13;3.00;;;;;;;;;;5068633;28;20049;-68
2022/07/22 11:21:24;;;;;;;4.13;2.80;;;;;;;;;;5068783;28;20045;-66
2022/07/22 11:23:52;;;;;;;5.03;3.17;;;;;;;;;;5067334;28;20059;-67
2022/07/22 11:26:24;;;;;;;9.10;3.50;;;;;;;;;;5069536;28;20048;-65
2022/07/22 11:28:50;;;;;;;5.10;2.88;;;;;;;;;;5068267;28;20051;-70
2022/07/22 11:31:18;;;;;;;5.93;3.10;;;;;;;;;;5068093;28;20460;-69
2022/07/22 11:33:47;;;;;;;4.70;3.10;;;;;;;;;;5067262;28;20151;-67
2022/07/22 11:36:13;;;;;;;4.88;2.95;;;;;;;;;;5068875;28;20049;-67
2022/07/22 11:38:47;;;;;;;4.55;2.80;;;;;;;;;;5067729;28;20248;-68
2022/07/22 11:41:16;;;;;;;3.90;2.95;;;;;;;;;;5067736;28;20061;-65
2022/07/22 11:43:45;;;;;;;8.38;3.30;;;;;;;;;;5068020;28;20514;-66
2022/07/22 11:46:12;;;;;;;4.50;3.20;;;;;;;;;;5069126;28;20068;-69
2022/07/22 11:48:38;;;;;;;5.32;2.85;;;;;;;;;;5068396;28;20510;-71
2022/07/22 11:51:06;;;;;;;5.10;2.90;;;;;;;;;;5068629;28;20082;-65
2022/07/22 11:53:33;;;;;;;5.05;3.17;;;;;;;;;;5067683;28;20036;-68
2022/07/22 11:56:00;;;;;;;4.85;2.92;;;;;;;;;;5068570;28;20052;-66
2022/07/22 11:58:54;;;;;;;6.30;2.72;;;;;;;;;;5067747;28;20040;-71
2022/07/22 12:01:26;;;;;;;8.00;2.83;;;;;;;;;;5068525;28;20040;-65
2022/07/22 12:03:56;;;;;;;5.53;2.80;;;;;;;;;;5068063;28;20052;-66
2022/07/22 12:06:23;;;;;;;5.57;2.88;;;;;;;;;;5068359;28;20044;-65
2022/07/22 12:09:04;;;;;;;6.63;2.72;;;;;;;;;;5066968;28;20083;-68
2022/07/22 12:11:30;;;;;;;8.60;3.38;;;;;;;;;;5067774;28;20506;-70
2022/07/22 12:14:03;;;;;;;5.75;3.05;;;;;;;;;;5067639;28;20059;-65
2022/07/22 12:16:30;;;;;;;5.80;2.72;;;;;;;;;;5068326;28;20052;-65
2022/07/22 12:19:04;;;;;;;4.63;3.00;;;;;;;;;;5067845;28;20046;-73
2022/07/22 12:21:52;;;;;;;6.05;2.72;;;;;;;;;;5067770;28;20044;-68
2022/07/22 12:24:39;;;;;;;4.35;2.78;;;;;;;;;;5067861;28;20045;-67
2022/07/22 12:27:11;;;;;;;6.50;2.67;;;;;;;;;;5059801;28;20055;-67
2022/07/22 12:29:36;;;;;;;5.45;3.28;;;;;;;;;;5067880;28;20048;-67
2022/07/22 12:32:09;;;;;;;7.53;3.35;;;;;;;;;;5069347;28;20094;-67
2022/07/22 12:34:40;;;;;;;6.87;2.83;;;;;;;;;;5068577;28;20059;-70
2022/07/22 12:37:22;;;;;;;6.85;3.20;;;;;;;;;;5068943;28;21011;-68
2022/07/22 12:40:15;;;;;;;5.47;3.42;;;;;;;;;;5066015;28;20056;-67
2022/07/22 12:42:44;;;;;;;5.43;2.75;;;;;;;;;;5050393;28;20077;-67
2022/07/22 12:45:16;;;;;;;5.00;3.30;;;;;;;;;;5062395;28;20051;-68
2022/07/22 12:48:07;;;;;;;10.10;5.68;;;;;;;;;;5067894;28;20129;-69
2022/07/22 12:50:38;;;;;;;8.93;3.97;;;;;;;;;;5040450;28;20047;-67
2022/07/22 12:53:12;;;;;;;7.45;4.25;;;;;;;;;;5047598;28;20037;-64
2022/07/22 12:55:42;;;;;;;9.80;3.78;;;;;;;;;;5046456;28;20056;-64
2022/07/22 12:58:09;;;;;;;6.20;3.20;;;;;;;;;;5047891;28;20063;-65
2022/07/22 13:00:40;;;;;;;4.40;2.53;;;;;;;;;;5046287;28;20095;-67
2022/07/22 13:03:06;;;;;;;5.95;3.20;;;;;;;;;;5047560;28;20041;-66
2022/07/22 13:05:33;;;;;;;3.95;3.03;;;;;;;;;;5047608;28;20048;-70
2022/07/22 13:07:59;;;;;;;3.25;2.53;;;;;;;;;;5048587;28;20126;-65
2022/07/22 13:10:26;;;;;;;5.60;2.53;;;;;;;;;;5046215;28;20484;-64
2022/07/22 13:12:53;;;;;;;8.02;3.60;;;;;;;;;;5047581;28;20440;-67
2022/07/22 13:15:20;;;;;;;7.07;2.38;;;;;;;;;;5046492;28;20172;-67
2022/07/22 13:17:47;;;;;;;5.90;2.95;;;;;;;;;;5047080;28;20104;-66
2022/07/22 13:20:16;;;;;;;4.03;2.30;;;;;;;;;;5038869;28;20056;-64
2022/07/22 13:22:43;;;;;;;5.97;2.25;;;;;;;;;;5047184;28;20164;-69
2022/07/22 13:25:09;;;;;;;5.80;2.33;;;;;;;;;;5046681;28;20041;-66
2022/07/22 13:27:35;;;;;;;6.20;2.53;;;;;;;;;;5047850;28;20044;-68
2022/07/22 13:40:57;;;;;;;6.72;1.95;;;;;;;;;;5106538;27;20393;-69
2022/07/22 13:43:24;;;;;;;5.32;1.92;;;;;;;;;;5068977;28;20491;-70
2022/07/22 13:45:52;;;;;;;6.82;2.05;;;;;;;;;;5076761;28;20048;-70
2022/07/22 13:48:19;;;;;;;4.32;1.83;;;;;;;;;;5086103;28;20482;-70
2022/07/22 13:50:46;;;;;;;7.38;2.30;;;;;;;;;;5087234;28;20064;-71
2022/07/22 13:53:11;;;;;;;7.53;2.20;;;;;;;;;;5087183;28;20044;-72
2022/07/22 13:55:38;;;;;;;5.97;2.08;;;;;;;;;;5087330;28;20048;-71
2022/07/22 13:58:05;;;;;;;5.85;1.92;;;;;;;;;;5087315;28;20406;-72
2022/07/22 14:00:31;;;;;;;6.30;2.50;;;;;;;;;;5073922;28;20044;-71
2022/07/22 14:02:57;;;;;;;10.40;2.20;;;;;;;;;;5084863;28;20052;-72
2022/07/22 14:05:23;;;;;;;10.32;2.35;;;;;;;;;;5089645;28;20044;-73
2022/07/22 14:07:49;;;;;;;8.32;2.70;;;;;;;;;;5087109;28;20062;-72
2022/07/22 14:10:14;;;;;;;9.57;3.55;;;;;;;;;;5087194;28;20048;-71
2022/07/22 14:12:41;;;;;;;20.63;10.38;;;;;;;;;;5079879;28;20094;-72
2022/07/22 14:15:08;;;;;;;8.50;3.83;;;;;;;;;;5082652;28;20048;-73
2022/07/22 14:17:34;;;;;;;7.20;3.30;;;;;;;;;;5086157;28;20040;-72
2022/07/22 14:20:01;;;;;;;8.75;4.20;;;;;;;;;;5092077;28;20094;-75
2022/07/22 14:22:28;;;;;;;7.18;3.50;;;;;;;;;;5087097;28;20052;-72
2022/07/22 14:24:54;;;;;;;6.43;3.20;;;;;;;;;;5083456;28;20037;-70
2022/07/22 14:27:20;;;;;;;4.45;2.75;;;;;;;;;;5092229;28;20041;-72
2022/07/22 14:29:45;;;;;;;4.97;2.42;;;;;;;;;;5076535;28;20131;-72
2022/07/22 14:32:11;;;;;;;6.38;3.42;;;;;;;;;;5070538;28;20049;-72
2022/07/22 14:34:37;;;;;;;6.97;3.05;;;;;;;;;;5086144;28;20430;-69
2022/07/22 14:37:03;;;;;;;12.10;3.97;;;;;;;;;;5086134;28;20570;-73
2022/07/22 14:39:28;;;;;;;4.82;2.38;;;;;;;;;;5052098;28;20108;-72
2022/07/22 14:41:54;;;;;;;6.78;3.47;;;;;;;;;;4988960;28;20057;-72
2022/07/22 14:44:20;;;;;;;8.23;2.53;;;;;;;;;;4990643;28;20108;-71
2022/07/22 14:46:46;;;;;;;7.43;2.70;;;;;;;;;;4989837;28;20053;-70
2022/07/22 14:49:13;;;;;;;5.63;2.47;;;;;;;;;;4989765;28;20054;-71
2022/07/22 14:51:38;;;;;;;4.53;2.97;;;;;;;;;;4979814;28;20497;-71
2022/07/22 14:54:06;;;;;;;6.40;3.05;;;;;;;;;;4987315;28;20053;-72
2022/07/22 14:56:32;;;;;;;10.40;2.90;;;;;;;;;;4990917;28;20072;-69